Time;durP1;ratioP1;P1;durP2;ratioP2;P2;SDS_P1;SDS_P2;PMS_P1;PMS_P2;Temp;Humidity;BMP_temperature;BMP_pressure;BME280_temperature;BME280_humidity;BME280_pressure;Samples;Min_cycle;Max_cycle;Signal;HPM_P1;HPM_P2
2021/12/22 00:00:17;;;;;;;22.83;14.67;;;-2.40;99.90;;;;;;5075036;28;20040;-60
2021/12/22 00:02:48;;;;;;;21.67;14.75;;;-2.40;99.90;;;;;;5070906;28;20044;-60
2021/12/22 00:05:20;;;;;;;23.75;15.85;;;-2.40;99.90;;;;;;5071179;28;20485;-60
2021/12/22 00:07:46;;;;;;;22.27;14.80;;;-2.40;99.90;;;;;;5071026;28;20040;-60
2021/12/22 00:10:12;;;;;;;25.60;14.55;;;-2.40;99.90;;;;;;5070716;28;20031;-60
2021/12/22 00:12:38;;;;;;;22.00;14.73;;;-2.50;99.90;;;;;;5069660;28;20105;-60
2021/12/22 00:15:05;;;;;;;23.97;15.47;;;-2.50;99.90;;;;;;5074584;28;20044;-58
2021/12/22 00:17:31;;;;;;;23.45;15.20;;;-2.50;99.90;;;;;;5081131;28;20037;-60
2021/12/22 00:19:56;;;;;;;23.20;15.80;;;-2.50;99.90;;;;;;5071720;28;20043;-59
2021/12/22 00:22:22;;;;;;;27.03;15.40;;;-2.60;99.90;;;;;;5076315;28;20036;-60
2021/12/22 00:24:48;;;;;;;21.17;13.90;;;-2.60;99.90;;;;;;5072351;28;20040;-58
2021/12/22 00:27:13;;;;;;;22.60;14.43;;;-2.60;99.90;;;;;;5072928;28;20063;-59
2021/12/22 00:29:39;;;;;;;23.07;15.50;;;-2.60;99.90;;;;;;5071617;28;20423;-59
2021/12/22 00:32:14;;;;;;;26.63;15.45;;;-2.60;99.90;;;;;;5081711;28;20047;-60
2021/12/22 00:35:00;;;;;;;24.88;15.25;;;-2.70;99.90;;;;;;5087747;28;20042;-59
2021/12/22 00:37:29;;;;;;;22.08;15.27;;;-2.70;99.90;;;;;;5066682;28;20043;-60
2021/12/22 00:39:57;;;;;;;27.38;16.27;;;-2.80;99.90;;;;;;5075212;28;20038;-60
2021/12/22 00:42:24;;;;;;;24.70;15.10;;;-2.80;99.90;;;;;;5078202;28;20075;-57
2021/12/22 00:44:53;;;;;;;25.35;15.98;;;-2.90;99.90;;;;;;5079617;28;20094;-58
2021/12/22 00:47:28;;;;;;;27.10;17.48;;;-2.90;99.90;;;;;;5072808;28;20051;-59
2021/12/22 00:49:55;;;;;;;24.45;15.30;;;-2.90;99.90;;;;;;5072188;28;20489;-60
2021/12/22 00:52:21;;;;;;;25.42;16.60;;;-2.90;99.90;;;;;;5081430;28;20461;-60
2021/12/22 00:54:46;;;;;;;24.92;16.90;;;-2.90;99.90;;;;;;5080235;28;20082;-59
2021/12/22 00:57:14;;;;;;;25.17;15.20;;;-3.00;99.90;;;;;;5079515;28;20485;-59
2021/12/22 00:59:40;;;;;;;30.63;16.50;;;-3.00;99.90;;;;;;5073178;28;20056;-59
2021/12/22 01:02:08;;;;;;;18.17;13.97;;;-3.00;99.90;;;;;;5072077;28;20409;-58
2021/12/22 01:04:34;;;;;;;27.15;15.65;;;-3.00;99.90;;;;;;5079372;28;20052;-61
2021/12/22 01:07:00;;;;;;;27.13;16.30;;;-3.00;99.90;;;;;;5062078;28;20078;-59
2021/12/22 01:09:25;;;;;;;27.57;16.53;;;-3.00;99.90;;;;;;5072427;28;20115;-60
2021/12/22 01:11:51;;;;;;;28.77;16.97;;;-3.00;99.90;;;;;;5071467;28;20040;-60
2021/12/22 01:14:17;;;;;;;29.60;17.50;;;-3.00;99.90;;;;;;5082812;28;20040;-59
2021/12/22 01:16:47;;;;;;;29.05;18.15;;;-3.00;99.90;;;;;;5072746;28;20031;-60
2021/12/22 01:19:18;;;;;;;25.35;16.70;;;-3.00;99.90;;;;;;5069922;28;20067;-58
2021/12/22 01:21:53;;;;;;;27.40;16.90;;;-3.00;99.90;;;;;;5084337;28;20035;-60
2021/12/22 01:24:31;;;;;;;24.60;15.90;;;-3.10;99.90;;;;;;5077147;28;20047;-60
2021/12/22 01:27:04;;;;;;;25.02;16.60;;;-3.10;99.90;;;;;;5066768;28;20041;-60
2021/12/22 01:29:37;;;;;;;29.15;16.00;;;-3.10;99.90;;;;;;5069024;28;20124;-60
2021/12/22 01:32:04;;;;;;;28.40;17.58;;;-3.20;99.90;;;;;;5072808;28;20040;-60
2021/12/22 01:34:29;;;;;;;24.90;18.38;;;-3.20;99.90;;;;;;5074188;28;20513;-60
2021/12/22 01:36:56;;;;;;;28.07;17.60;;;-3.20;99.90;;;;;;5086965;28;20039;-58
2021/12/22 01:39:22;;;;;;;;;;;-3.20;99.90;;;;;;5076061;28;20282;-59
2021/12/22 01:41:48;;;;;;;28.40;17.02;;;-3.20;99.90;;;;;;5090697;28;20241;-60
2021/12/22 01:44:27;;;;;;;33.07;17.90;;;-3.20;99.90;;;;;;5092957;28;20039;-60
2021/12/22 01:49:49;;;;;;;25.90;17.77;;;-3.30;99.90;;;;;;5086482;28;20119;-60
2021/12/22 01:52:15;;;;;;;30.27;16.95;;;-3.30;99.90;;;;;;5051386;28;20037;-59
2021/12/22 01:54:49;;;;;;;30.70;17.35;;;-3.30;99.90;;;;;;5071894;28;20118;-59
2021/12/22 01:57:19;;;;;;;27.00;16.70;;;-3.30;99.90;;;;;;5075106;28;20042;-59
2021/12/22 01:59:47;;;;;;;32.47;16.35;;;-3.40;99.90;;;;;;5079960;28;20028;-57
2021/12/22 02:02:14;;;;;;;27.55;16.20;;;-3.40;99.90;;;;;;5071668;28;20140;-56
2021/12/22 02:04:41;;;;;;;30.83;18.83;;;-3.40;99.90;;;;;;5077865;28;20716;-57
2021/12/22 02:07:08;;;;;;;27.00;17.45;;;-3.40;99.90;;;;;;5072603;28;20044;-59
2021/12/22 02:12:07;;;;;;;30.60;17.80;;;-3.50;99.90;;;;;;5075495;28;20120;-57
2021/12/22 02:14:33;;;;;;;27.65;17.85;;;-3.50;99.90;;;;;;5075042;28;20036;-56
2021/12/22 02:16:59;;;;;;;29.35;17.58;;;-3.50;99.90;;;;;;5088465;28;20460;-56
2021/12/22 02:19:24;;;;;;;30.50;19.37;;;-3.50;99.90;;;;;;5081081;28;20043;-58
2021/12/22 02:21:55;;;;;;;29.80;16.93;;;-3.50;99.90;;;;;;5073927;28;20040;-59
2021/12/22 02:24:21;;;;;;;29.17;17.40;;;-3.50;99.90;;;;;;5074682;28;20057;-59
2021/12/22 02:26:57;;;;;;;27.70;15.73;;;-3.60;99.90;;;;;;5075145;28;20097;-59
2021/12/22 02:29:34;;;;;;;26.40;16.63;;;-3.60;99.90;;;;;;5078486;28;20056;-59
2021/12/22 02:33:05;;;;;;;29.00;15.80;;;-3.60;99.90;;;;;;5087421;28;20039;-59
2021/12/22 02:34:49;;;;;;;27.23;17.25;;;-3.60;99.90;;;;;;5083890;28;20051;-57
2021/12/22 02:37:18;;;;;;;32.35;18.63;;;-3.60;99.90;;;;;;5089417;28;20039;-59
2021/12/22 02:39:53;;;;;;;28.95;17.90;;;-3.60;99.90;;;;;;5088626;28;20043;-60
2021/12/22 02:42:21;;;;;;;28.08;16.30;;;-3.60;99.90;;;;;;5060971;28;20047;-58
2021/12/22 02:44:47;;;;;;;27.13;16.83;;;-3.70;99.90;;;;;;5082743;28;20451;-59
2021/12/22 02:47:21;;;;;;;29.97;17.27;;;-3.70;99.90;;;;;;5074019;28;20120;-59
2021/12/22 02:49:48;;;;;;;26.83;17.13;;;-3.70;99.90;;;;;;5077150;28;20282;-59
2021/12/22 02:52:15;;;;;;;27.15;17.08;;;-3.70;99.90;;;;;;5082478;28;20036;-60
2021/12/22 02:54:52;;;;;;;27.45;18.10;;;-3.70;99.90;;;;;;5085933;28;20066;-59
2021/12/22 02:57:29;;;;;;;28.25;18.17;;;-3.70;99.90;;;;;;5088027;28;20078;-60
2021/12/22 03:00:27;;;;;;;27.67;16.88;;;-3.80;99.90;;;;;;5089296;28;20059;-59
2021/12/22 03:03:05;;;;;;;25.75;16.95;;;-3.80;99.90;;;;;;5068170;28;20048;-61
2021/12/22 03:05:30;;;;;;;26.08;16.65;;;-3.80;99.90;;;;;;5085790;28;20048;-59
2021/12/22 03:07:56;;;;;;;24.60;16.55;;;-3.70;99.90;;;;;;5090296;28;20546;-59
2021/12/22 03:10:22;;;;;;;27.23;18.30;;;-3.80;99.90;;;;;;5078434;28;20037;-59
2021/12/22 03:12:55;;;;;;;27.13;16.77;;;-3.80;99.90;;;;;;5086156;28;20036;-59
2021/12/22 03:15:21;;;;;;;29.38;18.83;;;-3.80;99.90;;;;;;5089371;28;20082;-59
2021/12/22 03:17:48;;;;;;;28.02;17.73;;;-3.80;99.90;;;;;;5080376;28;20040;-60
2021/12/22 03:20:15;;;;;;;27.77;17.58;;;-3.90;99.90;;;;;;5074185;28;20032;-59
2021/12/22 03:22:43;;;;;;;25.58;16.65;;;-3.90;99.90;;;;;;5082521;28;20032;-59
2021/12/22 03:25:15;;;;;;;24.90;16.13;;;-3.90;99.90;;;;;;5086938;28;20076;-59
2021/12/22 03:27:46;;;;;;;24.98;15.35;;;-3.90;99.90;;;;;;5090281;28;20534;-60
2021/12/22 03:30:15;;;;;;;26.83;16.92;;;-3.90;99.90;;;;;;5076988;28;20378;-59
2021/12/22 03:32:40;;;;;;;25.80;15.57;;;-3.90;99.90;;;;;;5076389;28;20063;-60
2021/12/22 03:35:07;;;;;;;26.37;15.93;;;-4.00;99.90;;;;;;5083781;28;20087;-59
2021/12/22 03:37:33;;;;;;;26.08;17.15;;;-4.00;99.90;;;;;;5072908;28;20124;-60
2021/12/22 03:39:59;;;;;;;31.50;18.73;;;-4.00;99.90;;;;;;5073244;28;20123;-60
2021/12/22 03:42:24;;;;;;;30.40;17.40;;;-4.00;99.90;;;;;;5075863;28;20085;-59
2021/12/22 03:44:50;;;;;;;26.57;16.73;;;-4.00;99.90;;;;;;5086905;28;20032;-60
2021/12/22 03:47:15;;;;;;;25.37;15.33;;;-4.00;99.90;;;;;;5073178;28;20564;-57
2021/12/22 03:49:41;;;;;;;27.93;15.50;;;-4.00;99.90;;;;;;5077636;28;20032;-59
2021/12/22 03:52:07;;;;;;;30.10;17.43;;;-4.00;99.90;;;;;;5073440;28;20304;-59
2021/12/22 03:54:33;;;;;;;29.40;16.70;;;-4.00;99.90;;;;;;5087006;28;20064;-59
2021/12/22 03:56:59;;;;;;;29.83;18.67;;;-4.00;99.90;;;;;;5078087;28;20374;-59
2021/12/22 03:59:25;;;;;;;37.92;16.88;;;-4.00;99.90;;;;;;5073562;28;20536;-59
2021/12/22 04:01:51;;;;;;;35.40;19.55;;;-4.00;99.90;;;;;;5074534;28;20409;-59
2021/12/22 04:04:18;;;;;;;;;;;-4.00;99.90;;;;;;5076310;28;20557;-56
2021/12/22 04:06:46;;;;;;;29.30;16.90;;;-4.00;99.90;;;;;;5088499;28;19916;-57
2021/12/22 04:09:14;;;;;;;30.40;17.25;;;-4.00;99.90;;;;;;5073182;28;20132;-59
2021/12/22 04:11:40;;;;;;;30.25;17.92;;;-4.00;99.90;;;;;;5078227;28;20393;-59
2021/12/22 04:14:06;;;;;;;30.10;17.92;;;-4.00;99.90;;;;;;5087417;28;20051;-59
2021/12/22 04:16:32;;;;;;;32.55;19.20;;;-4.10;99.90;;;;;;5078242;28;20036;-58
2021/12/22 04:18:58;;;;;;;34.90;20.30;;;-4.00;99.90;;;;;;5081892;28;20067;-59
2021/12/22 04:21:23;;;;;;;32.55;18.63;;;-4.10;99.90;;;;;;5080638;28;20043;-58
2021/12/22 04:23:49;;;;;;;27.40;16.70;;;-4.10;99.90;;;;;;5081872;28;20040;-58
2021/12/22 04:26:15;;;;;;;28.80;17.53;;;-4.10;99.90;;;;;;5080382;28;20036;-59
2021/12/22 04:28:41;;;;;;;31.73;17.10;;;-4.10;99.90;;;;;;5072362;28;20393;-58
2021/12/22 04:31:07;;;;;;;31.30;16.67;;;-4.10;99.90;;;;;;5073240;28;20043;-57
2021/12/22 04:33:32;;;;;;;29.25;16.35;;;-4.10;99.90;;;;;;5071443;28;20036;-59
2021/12/22 04:35:58;;;;;;;28.00;16.77;;;-4.10;99.90;;;;;;5073964;28;20096;-59
2021/12/22 04:38:24;;;;;;;24.10;15.83;;;-4.10;99.90;;;;;;5087411;28;20032;-59
2021/12/22 04:40:50;;;;;;;31.08;17.02;;;-4.10;99.90;;;;;;5088746;28;20040;-58
2021/12/22 04:43:16;;;;;;;35.63;18.58;;;-4.00;99.90;;;;;;5086689;28;20047;-59
2021/12/22 04:45:42;;;;;;;27.67;16.15;;;-4.00;99.90;;;;;;5081962;28;20037;-58
2021/12/22 04:48:07;;;;;;;32.13;16.40;;;-4.00;99.90;;;;;;5082560;28;20093;-59
2021/12/22 04:50:33;;;;;;;31.97;18.10;;;-4.00;99.90;;;;;;5080247;28;20086;-58
2021/12/22 04:53:05;;;;;;;30.80;17.33;;;-4.00;99.90;;;;;;5089036;28;20289;-59
2021/12/22 04:55:31;;;;;;;32.50;17.70;;;-3.90;99.90;;;;;;5086162;28;20040;-59
2021/12/22 04:57:58;;;;;;;30.67;16.10;;;-3.90;99.90;;;;;;5087514;28;20044;-59
2021/12/22 05:00:26;;;;;;;31.23;17.35;;;-3.90;99.90;;;;;;5084327;28;20070;-59
2021/12/22 05:02:53;;;;;;;32.05;18.75;;;-3.90;99.90;;;;;;5072193;28;20037;-59
2021/12/22 05:05:19;;;;;;;32.00;17.60;;;-3.90;99.90;;;;;;5086694;28;20059;-59
2021/12/22 05:07:47;;;;;;;32.33;17.30;;;-3.90;99.90;;;;;;5088676;28;20081;-57
2021/12/22 05:10:14;;;;;;;32.90;16.90;;;-3.90;99.90;;;;;;5086724;28;20051;-59
2021/12/22 05:12:40;;;;;;;26.45;15.63;;;-3.90;99.90;;;;;;5088426;28;20075;-59
2021/12/22 05:15:06;;;;;;;27.35;16.73;;;-3.90;99.90;;;;;;5085465;28;20051;-59
2021/12/22 05:20:24;;;;;;;30.25;16.15;;;-3.90;99.90;;;;;;5049592;28;20048;-59
2021/12/22 05:22:50;;;;;;;;;;;-3.90;99.90;;;;;;5085831;28;20076;-60
2021/12/22 05:25:16;;;;;;;27.73;16.33;;;-3.90;99.90;;;;;;5085228;28;20285;-61
2021/12/22 05:27:42;;;;;;;27.65;15.10;;;-3.90;99.90;;;;;;5085671;28;20082;-60
2021/12/22 05:30:10;;;;;;;26.98;15.32;;;-3.90;99.90;;;;;;5084284;28;20028;-60
2021/12/22 05:32:36;;;;;;;26.88;15.23;;;-3.90;99.90;;;;;;5078841;28;20033;-60
2021/12/22 05:35:05;;;;;;;25.35;15.65;;;-3.90;99.90;;;;;;5086930;28;20040;-60
2021/12/22 05:37:31;;;;;;;26.65;14.98;;;-3.90;99.90;;;;;;5085679;28;20527;-60
2021/12/22 05:39:56;;;;;;;30.70;16.60;;;-3.90;99.90;;;;;;5091669;28;20040;-59
2021/12/22 05:42:24;;;;;;;28.55;16.10;;;-3.90;99.90;;;;;;5092295;28;20111;-60
2021/12/22 05:44:50;;;;;;;27.92;16.65;;;-3.90;99.90;;;;;;5073596;28;20401;-59
2021/12/22 05:47:16;;;;;;;33.67;15.40;;;-3.90;99.90;;;;;;5089995;28;20040;-59
2021/12/22 05:49:43;;;;;;;27.83;15.03;;;-3.90;99.90;;;;;;5090661;28;20047;-59
2021/12/22 05:52:09;;;;;;;27.65;15.07;;;-3.90;99.90;;;;;;5086683;28;20405;-61
2021/12/22 05:54:35;;;;;;;30.20;16.75;;;-3.90;99.90;;;;;;5078111;28;20045;-59
2021/12/22 05:57:00;;;;;;;25.97;16.30;;;-3.90;99.90;;;;;;5080348;28;20052;-60
2021/12/22 05:59:26;;;;;;;27.17;16.03;;;-3.90;99.90;;;;;;5089684;28;20036;-59
2021/12/22 06:01:51;;;;;;;26.03;16.70;;;-3.90;99.90;;;;;;5089078;28;20397;-58
2021/12/22 06:04:17;;;;;;;26.37;16.33;;;-3.90;99.90;;;;;;5065516;28;20045;-60
2021/12/22 06:06:43;;;;;;;27.50;16.43;;;-3.90;99.90;;;;;;5085559;28;20417;-60
2021/12/22 06:09:08;;;;;;;28.30;16.93;;;-3.90;99.90;;;;;;5081736;28;20416;-60
2021/12/22 06:11:34;;;;;;;24.50;15.03;;;-3.90;99.90;;;;;;5078346;28;20079;-58
2021/12/22 06:14:00;;;;;;;29.80;16.07;;;-3.90;99.90;;;;;;5074990;28;20066;-59
2021/12/22 06:16:27;;;;;;;27.50;15.48;;;-3.90;99.90;;;;;;5074164;28;20036;-59
2021/12/22 06:18:57;;;;;;;25.15;15.48;;;-3.90;99.90;;;;;;5082944;28;20089;-60
2021/12/22 06:21:24;;;;;;;25.27;15.73;;;-3.90;99.90;;;;;;5074099;28;20086;-59
2021/12/22 06:23:50;;;;;;;29.98;16.67;;;-3.90;99.90;;;;;;5086179;28;20180;-60
2021/12/22 06:26:16;;;;;;;23.50;14.55;;;-3.90;99.90;;;;;;5089654;28;20409;-60
2021/12/22 06:28:41;;;;;;;26.57;16.30;;;-4.00;99.90;;;;;;5085513;28;20032;-60
2021/12/22 06:31:07;;;;;;;28.13;15.10;;;-3.90;99.90;;;;;;5076894;28;20552;-58
2021/12/22 06:33:33;;;;;;;25.87;15.07;;;-4.00;99.90;;;;;;5073417;28;20028;-60
2021/12/22 06:35:59;;;;;;;30.67;14.87;;;-4.00;99.90;;;;;;5073794;28;20524;-58
2021/12/22 06:38:25;;;;;;;30.38;14.40;;;-4.00;99.90;;;;;;5086311;28;20278;-60
2021/12/22 06:40:51;;;;;;;26.05;16.17;;;-4.00;99.90;;;;;;5085012;28;20105;-56
2021/12/22 06:43:17;;;;;;;25.55;14.80;;;-4.00;99.90;;;;;;5077061;28;20037;-59
2021/12/22 06:45:43;;;;;;;27.00;17.38;;;-4.00;99.90;;;;;;5079693;28;20043;-60
2021/12/22 06:48:08;;;;;;;26.35;14.75;;;-4.00;99.90;;;;;;5082347;28;20409;-57
2021/12/22 06:50:34;;;;;;;25.37;15.77;;;-4.10;99.90;;;;;;5088703;28;20020;-60
2021/12/22 06:52:59;;;;;;;19.30;13.33;;;-4.10;99.90;;;;;;5087677;28;20538;-60
2021/12/22 06:55:25;;;;;;;25.87;14.63;;;-4.10;99.90;;;;;;5089326;28;20119;-60
2021/12/22 06:57:51;;;;;;;28.60;16.03;;;-4.10;99.90;;;;;;5088121;28;20118;-57
2021/12/22 07:00:17;;;;;;;25.27;14.88;;;-4.10;99.90;;;;;;5075962;28;20044;-60
2021/12/22 07:02:43;;;;;;;32.40;15.80;;;-4.10;99.90;;;;;;5071707;28;20036;-59
2021/12/22 07:05:12;;;;;;;26.43;15.17;;;-4.10;99.90;;;;;;5072251;28;20048;-60
2021/12/22 07:07:39;;;;;;;29.83;16.70;;;-4.10;99.90;;;;;;5074557;28;20036;-60
2021/12/22 07:10:08;;;;;;;28.52;14.55;;;-4.10;99.90;;;;;;5086903;28;20040;-59
2021/12/22 07:12:34;;;;;;;21.35;13.15;;;-4.10;99.90;;;;;;5076801;28;20519;-60
2021/12/22 07:15:02;;;;;;;32.13;16.17;;;-4.00;99.90;;;;;;5083004;28;20513;-60
2021/12/22 07:17:28;;;;;;;22.80;14.90;;;-4.00;99.90;;;;;;5071687;28;20421;-60
2021/12/22 07:19:53;;;;;;;23.20;14.33;;;-4.00;99.90;;;;;;5072160;28;20040;-60
2021/12/22 07:22:19;;;;;;;22.03;14.33;;;-4.00;99.90;;;;;;5066866;28;20412;-58
2021/12/22 07:24:44;;;;;;;27.93;16.50;;;-4.00;99.90;;;;;;5055258;28;20076;-60
2021/12/22 07:27:10;;;;;;;23.30;15.57;;;-4.00;99.90;;;;;;5054354;28;20059;-60
2021/12/22 07:29:37;;;;;;;27.83;15.83;;;-4.00;99.90;;;;;;5079050;28;20031;-61
2021/12/22 07:32:03;;;;;;;23.52;15.60;;;-4.00;99.90;;;;;;5079960;28;20396;-59
2021/12/22 07:35:10;;;;;;;23.48;15.55;;;-4.00;99.90;;;;;;5080050;28;20437;-60
2021/12/22 07:37:46;;;;;;;22.48;14.70;;;-4.00;99.90;;;;;;5060270;28;20055;-60
2021/12/22 07:40:14;;;;;;;29.10;15.30;;;-4.00;99.90;;;;;;5071183;28;20517;-61
2021/12/22 07:42:40;;;;;;;25.77;15.10;;;-4.00;99.90;;;;;;5071110;28;20047;-60
2021/12/22 07:45:07;;;;;;;27.52;16.30;;;-4.00;99.90;;;;;;5076236;28;20055;-60
2021/12/22 07:47:33;;;;;;;23.88;14.52;;;-4.00;99.90;;;;;;5082326;28;20028;-60
2021/12/22 07:49:58;;;;;;;35.07;17.60;;;-4.00;99.90;;;;;;5075206;28;20046;-59
2021/12/22 07:52:27;;;;;;;30.43;16.27;;;-4.00;99.90;;;;;;5078020;28;20043;-60
2021/12/22 07:54:56;;;;;;;35.50;19.00;;;-4.00;99.90;;;;;;5068900;28;20085;-60
2021/12/22 07:57:22;;;;;;;35.60;16.73;;;-3.90;99.90;;;;;;5075385;28;20040;-59
2021/12/22 07:59:47;;;;;;;38.45;18.67;;;-3.80;99.90;;;;;;5065559;28;20485;-60
2021/12/22 08:02:13;;;;;;;36.33;19.30;;;-3.50;99.90;;;;;;5060161;28;20044;-59
2021/12/22 08:04:39;;;;;;;36.57;20.60;;;-3.40;99.90;;;;;;5072744;28;20044;-59
2021/12/22 08:07:05;;;;;;;36.20;20.30;;;-3.30;99.90;;;;;;5073002;28;20039;-57
2021/12/22 08:09:31;;;;;;;54.53;20.98;;;-3.30;99.90;;;;;;5082880;28;20032;-59
2021/12/22 08:12:04;;;;;;;44.38;18.98;;;-3.30;99.90;;;;;;5066761;28;20490;-58
2021/12/22 08:14:38;;;;;;;49.20;20.65;;;-3.20;99.90;;;;;;5074943;28;20058;-59
2021/12/22 08:17:04;;;;;;;36.60;20.88;;;-3.10;99.90;;;;;;5077554;28;20037;-61
2021/12/22 08:19:30;;;;;;;33.13;18.05;;;-3.00;99.90;;;;;;5073979;28;20079;-59
2021/12/22 08:21:56;;;;;;;34.27;19.80;;;-2.60;99.90;;;;;;5079167;28;20067;-60
2021/12/22 08:24:22;;;;;;;28.42;16.90;;;-2.50;99.90;;;;;;5087474;28;20039;-59
2021/12/22 08:26:47;;;;;;;29.05;17.42;;;-2.20;99.90;;;;;;5064546;28;20508;-61
2021/12/22 08:29:13;;;;;;;29.97;18.10;;;-2.00;99.90;;;;;;5059744;28;20068;-58
2021/12/22 08:31:39;;;;;;;27.00;16.40;;;-1.90;99.90;;;;;;5065915;28;20033;-60
2021/12/22 08:34:06;;;;;;;27.60;16.27;;;-1.90;99.90;;;;;;5077372;28;20036;-60
2021/12/22 08:39:29;;;;;;;28.00;15.77;;;-1.90;99.90;;;;;;5029368;28;20466;-59
2021/12/22 08:41:56;;;;;;;28.07;17.03;;;-1.90;99.90;;;;;;5065745;28;20032;-60
2021/12/22 08:44:23;;;;;;;30.08;16.23;;;-1.80;99.90;;;;;;5066058;28;20033;-59
2021/12/22 08:46:50;;;;;;;28.23;16.17;;;-1.70;99.90;;;;;;5056210;28;20283;-59
2021/12/22 08:49:20;;;;;;;27.20;16.58;;;-1.40;99.90;;;;;;5059260;28;20029;-58
2021/12/22 08:51:47;;;;;;;28.85;17.17;;;-1.40;99.90;;;;;;5059558;28;20044;-60
2021/12/22 08:54:13;;;;;;;;;;;-1.40;99.90;;;;;;5057486;28;20044;-60
2021/12/22 08:56:39;;;;;;;31.45;18.27;;;-1.60;99.90;;;;;;5063109;28;20012;-60
2021/12/22 08:59:06;;;;;;;28.30;16.40;;;-1.70;99.90;;;;;;5058028;28;20055;-58
2021/12/22 09:01:32;;;;;;;27.88;18.08;;;-1.80;99.90;;;;;;5053295;28;20056;-59
2021/12/22 09:03:58;;;;;;;27.57;16.47;;;-1.80;99.90;;;;;;5060480;28;20044;-60
2021/12/22 09:06:24;;;;;;;27.10;16.92;;;-1.80;99.90;;;;;;5065353;28;20127;-59
2021/12/22 09:08:51;;;;;;;25.60;16.90;;;-1.70;99.90;;;;;;5058970;28;20120;-59
2021/12/22 09:11:17;;;;;;;27.67;16.65;;;-1.60;99.90;;;;;;5058687;28;20270;-60
2021/12/22 09:13:43;;;;;;;25.73;16.58;;;-1.60;99.90;;;;;;5064151;28;20071;-60
2021/12/22 09:16:09;;;;;;;45.37;22.03;;;-1.60;99.90;;;;;;5066361;28;20076;-60
2021/12/22 09:18:36;;;;;;;25.85;16.13;;;-1.70;99.90;;;;;;5069052;28;20048;-60
2021/12/22 09:21:03;;;;;;;24.38;15.90;;;-1.80;99.90;;;;;;5069688;28;20087;-60
2021/12/22 09:23:28;;;;;;;;;;;-1.80;99.90;;;;;;5070328;28;20529;-60
2021/12/22 09:25:54;;;;;;;25.27;16.23;;;-1.90;99.90;;;;;;5066521;28;19999;-59
2021/12/22 09:28:19;;;;;;;27.43;17.73;;;-1.90;99.90;;;;;;5058763;28;20037;-59
2021/12/22 09:30:46;;;;;;;31.17;17.30;;;-1.90;99.90;;;;;;5063368;28;20029;-58
2021/12/22 09:33:14;;;;;;;29.48;18.48;;;-1.80;99.90;;;;;;5068991;28;20115;-58
2021/12/22 09:35:41;;;;;;;27.77;17.45;;;-1.60;99.90;;;;;;5071278;28;20049;-59
2021/12/22 09:38:08;;;;;;;25.58;16.75;;;-1.40;99.90;;;;;;5074976;28;20097;-59
2021/12/22 09:40:34;;;;;;;26.63;16.60;;;-1.30;99.90;;;;;;5074168;28;20040;-59
2021/12/22 09:42:59;;;;;;;24.60;15.77;;;-1.30;99.90;;;;;;5071482;28;20332;-59
2021/12/22 09:45:26;;;;;;;24.90;16.73;;;-1.20;99.90;;;;;;5069069;28;20044;-59
2021/12/22 09:53:18;;;;;;;23.65;15.23;;;-0.30;99.90;;;;;;5068911;28;20037;-57
2021/12/22 09:55:44;;;;;;;23.48;14.70;;;0.00;99.90;;;;;;5068433;28;20045;-59
2021/12/22 09:58:10;;;;;;;29.80;16.73;;;0.20;99.90;;;;;;5075191;28;20062;-60
2021/12/22 10:00:36;;;;;;;;;;;0.30;99.90;;;;;;5078602;28;20288;-60
2021/12/22 10:03:06;;;;;;;21.98;14.77;;;0.30;99.90;;;;;;5068237;28;20385;-60
2021/12/22 10:05:32;;;;;;;23.33;14.80;;;0.20;99.90;;;;;;5071320;28;20040;-60
2021/12/22 10:08:27;;;;;;;21.77;15.43;;;0.10;99.90;;;;;;5070247;28;20505;-61
2021/12/22 10:11:08;;;;;;;21.75;15.27;;;0.00;99.90;;;;;;5062847;28;20060;-60
2021/12/22 10:13:36;;;;;;;25.27;15.32;;;0.20;99.90;;;;;;5071220;28;20050;-59
2021/12/22 10:16:11;;;;;;;22.17;14.82;;;0.40;99.90;;;;;;5075594;28;20192;-61
2021/12/22 10:18:36;;;;;;;21.50;15.38;;;0.80;99.90;;;;;;5079982;28;20111;-58
2021/12/22 10:21:14;;;;;;;20.20;13.97;;;1.20;99.90;;;;;;5076856;28;20040;-59
2021/12/22 10:23:44;;;;;;;20.55;13.88;;;1.50;99.90;;;;;;5069113;28;20090;-56
2021/12/22 10:26:12;;;;;;;19.25;12.63;;;1.50;99.80;;;;;;5075295;28;20041;-57
2021/12/22 10:28:54;;;;;;;19.60;13.25;;;1.70;99.90;;;;;;5066694;28;20115;-59
2021/12/22 10:31:26;;;;;;;22.77;15.30;;;1.70;99.80;;;;;;5075691;28;20056;-61
2021/12/22 10:33:52;;;;;;;20.17;12.52;;;2.00;99.90;;;;;;5075559;28;20032;-60
2021/12/22 10:36:20;;;;;;;16.88;12.18;;;2.30;99.60;;;;;;5069599;28;20320;-60
2021/12/22 10:38:52;;;;;;;17.90;12.68;;;2.70;99.40;;;;;;5078397;28;20047;-60
2021/12/22 10:41:19;;;;;;;17.25;12.98;;;2.90;98.30;;;;;;5075648;28;20040;-60
2021/12/22 10:43:48;;;;;;;18.50;12.65;;;3.10;97.50;;;;;;5079089;28;20103;-60
2021/12/22 10:46:26;;;;;;;15.05;11.27;;;3.40;97.80;;;;;;5070489;28;20048;-61
2021/12/22 10:49:17;;;;;;;17.88;12.50;;;3.60;96.50;;;;;;5077490;28;20043;-61
2021/12/22 10:52:04;;;;;;;18.30;12.18;;;3.30;95.50;;;;;;5069120;28;20033;-61
2021/12/22 10:54:35;;;;;;;23.00;12.48;;;2.90;95.90;;;;;;5067461;28;20106;-61
2021/12/22 10:57:04;;;;;;;22.08;12.40;;;2.40;96.70;;;;;;5065108;28;20124;-59
2021/12/22 10:59:49;;;;;;;18.70;13.05;;;2.10;97.60;;;;;;5068480;28;20425;-61
2021/12/22 11:02:25;;;;;;;20.55;13.25;;;1.80;98.30;;;;;;5068010;28;20428;-59
2021/12/22 11:04:51;;;;;;;18.47;12.50;;;1.70;99.00;;;;;;5073999;28;20097;-60
2021/12/22 11:07:26;;;;;;;23.55;13.48;;;1.50;99.50;;;;;;5072218;28;20298;-59
2021/12/22 11:09:52;;;;;;;19.75;13.48;;;1.40;99.60;;;;;;5070445;28;20033;-60
2021/12/22 11:12:33;;;;;;;20.55;14.63;;;1.60;99.90;;;;;;5070597;28;20044;-61
2021/12/22 11:14:59;;;;;;;20.02;12.73;;;2.10;99.90;;;;;;5068575;28;20035;-62
2021/12/22 11:17:24;;;;;;;19.87;12.17;;;2.50;99.40;;;;;;5073618;28;20521;-60
2021/12/22 11:20:04;;;;;;;18.20;12.87;;;2.90;99.00;;;;;;5074742;28;20815;-60
2021/12/22 11:22:47;;;;;;;17.17;12.30;;;3.40;98.60;;;;;;5076533;28;20413;-60
2021/12/22 11:25:13;;;;;;;18.88;12.80;;;3.80;97.60;;;;;;5071490;28;20038;-60
2021/12/22 11:27:39;;;;;;;19.87;12.10;;;4.00;96.70;;;;;;5058159;28;20045;-61
2021/12/22 11:30:06;;;;;;;18.58;12.85;;;4.10;96.10;;;;;;5069524;28;20281;-57
2021/12/22 11:32:33;;;;;;;20.90;12.43;;;4.00;95.80;;;;;;5080356;28;20231;-59
2021/12/22 11:35:06;;;;;;;23.08;14.18;;;3.80;95.50;;;;;;5079090;28;21662;-60
2021/12/22 11:37:32;;;;;;;20.85;13.23;;;3.40;95.40;;;;;;5074575;28;20133;-60
2021/12/22 11:39:58;;;;;;;18.00;13.40;;;3.20;96.40;;;;;;5069903;28;20041;-61
2021/12/22 11:42:30;;;;;;;16.80;12.10;;;3.10;97.00;;;;;;5069197;28;20040;-60
2021/12/22 11:45:11;;;;;;;18.67;12.18;;;3.30;97.40;;;;;;5078651;28;20047;-59
2021/12/22 11:47:44;;;;;;;20.48;12.88;;;3.30;96.70;;;;;;5066051;28;20040;-59
2021/12/22 11:50:22;;;;;;;22.38;13.93;;;3.30;96.60;;;;;;5081568;28;20543;-59
2021/12/22 11:52:58;;;;;;;20.23;13.45;;;3.20;96.60;;;;;;5074799;28;20043;-59
2021/12/22 11:55:28;;;;;;;18.30;12.63;;;3.10;96.80;;;;;;5066920;28;20048;-60
2021/12/22 11:58:13;;;;;;;21.38;13.77;;;3.00;97.10;;;;;;5083842;28;20042;-60
2021/12/22 12:00:41;;;;;;;20.65;13.27;;;2.90;97.20;;;;;;5060626;28;20437;-60
2021/12/22 12:03:30;;;;;;;20.08;11.93;;;2.90;97.60;;;;;;5075468;28;20044;-61
2021/12/22 12:06:13;;;;;;;18.27;12.07;;;2.80;97.80;;;;;;5083284;28;20082;-60
2021/12/22 12:08:46;;;;;;;20.65;12.00;;;2.80;97.60;;;;;;5070977;28;20679;-60
2021/12/22 12:11:16;;;;;;;21.83;12.52;;;2.80;98.00;;;;;;5064988;28;20124;-60
2021/12/22 12:13:50;;;;;;;18.88;13.48;;;2.90;98.10;;;;;;5071542;28;20035;-61
2021/12/22 12:22:00;;;;;;;19.52;12.93;;;3.00;97.80;;;;;;5077019;28;20036;-61
2021/12/22 12:24:33;;;;;;;20.02;13.75;;;3.10;98.00;;;;;;5073758;28;20398;-61
2021/12/22 12:27:01;;;;;;;19.55;13.02;;;3.20;98.10;;;;;;5075886;28;20111;-60
2021/12/22 12:29:54;;;;;;;18.70;12.23;;;3.40;98.00;;;;;;5086237;28;20130;-61
2021/12/22 12:32:58;;;;;;;15.52;11.57;;;3.70;97.30;;;;;;5076020;28;20055;-61
2021/12/22 12:35:28;;;;;;;18.10;12.52;;;3.70;96.70;;;;;;4980197;28;20041;-60
2021/12/22 12:38:12;;;;;;;18.27;13.13;;;3.80;96.90;;;;;;5066366;28;20535;-60
2021/12/22 12:41:05;;;;;;;20.80;11.20;;;4.20;96.60;;;;;;5078916;28;20052;-59
2021/12/22 12:46:20;;;;;;;18.70;12.18;;;4.40;95.90;;;;;;5071824;28;20052;-58
2021/12/22 12:48:46;;;;;;;19.30;12.93;;;4.40;95.50;;;;;;5072871;28;20125;-57
2021/12/22 12:51:14;;;;;;;23.00;12.80;;;4.60;95.20;;;;;;5080343;28;20146;-57
2021/12/22 12:53:41;;;;;;;16.85;11.82;;;4.50;95.00;;;;;;5079291;28;20072;-60
2021/12/22 12:56:09;;;;;;;20.42;14.00;;;4.30;94.90;;;;;;5078038;28;20036;-56
2021/12/22 12:58:49;;;;;;;18.73;12.73;;;4.10;95.10;;;;;;5076812;28;20040;-59
2021/12/22 13:01:15;;;;;;;21.48;12.23;;;3.80;95.40;;;;;;5086661;28;20558;-59
2021/12/22 13:03:48;;;;;;;18.87;13.27;;;3.60;96.00;;;;;;5086786;28;20036;-59